Time;durP1;ratioP1;P1;durP2;ratioP2;P2;SDS_P1;SDS_P2;PMS_P1;PMS_P2;Temp;Humidity;BMP_temperature;BMP_pressure;BME280_temperature;BME280_humidity;BME280_pressure;Samples;Min_cycle;Max_cycle;Signal;HPM_P1;HPM_P2
2023/09/25 00:00:24;;;;;;;3.67;1.87;;;;;;;11.83;100.00;102297.13;5076901;28;20528;-73
2023/09/25 00:02:51;;;;;;;4.60;2.30;;;;;;;11.95;100.00;102301.47;5090386;22;20492;-72
2023/09/25 00:05:18;;;;;;;4.90;2.00;;;;;;;12.04;100.00;102299.88;5056065;28;20553;-72
2023/09/25 00:07:44;;;;;;;5.50;2.17;;;;;;;12.08;100.00;102296.34;5055824;28;20466;-72
2023/09/25 00:10:11;;;;;;;4.33;1.47;;;;;;;12.13;100.00;102287.41;5056420;28;21017;-72
2023/09/25 00:12:38;;;;;;;4.10;1.80;;;;;;;12.19;100.00;102293.66;5056120;28;20572;-72
2023/09/25 00:15:06;;;;;;;5.80;2.40;;;;;;;12.19;100.00;102291.75;5055839;28;21005;-73
2023/09/25 00:17:34;;;;;;;5.63;2.47;;;;;;;12.23;100.00;102294.75;5055951;28;20458;-73
2023/09/25 00:20:01;;;;;;;4.30;1.90;;;;;;;12.24;100.00;102283.63;5055779;28;20936;-73
2023/09/25 00:22:27;;;;;;;3.77;2.33;;;;;;;12.21;100.00;102288.75;5056131;28;20486;-73
2023/09/25 00:24:54;;;;;;;2.80;1.40;;;;;;;12.17;100.00;102287.66;5055595;28;20855;-73
2023/09/25 00:27:20;;;;;;;3.50;1.60;;;;;;;12.14;100.00;102283.59;5055758;28;20458;-73
2023/09/25 00:29:47;;;;;;;4.10;1.80;;;;;;;12.12;100.00;102285.75;5055837;28;20488;-73
2023/09/25 00:32:14;;;;;;;3.53;1.83;;;;;;;12.07;100.00;102283.03;5055916;28;21005;-73
2023/09/25 00:34:42;;;;;;;6.37;2.03;;;;;;;12.03;100.00;102284.66;5055699;28;20469;-73
2023/09/25 00:37:08;;;;;;;3.40;1.70;;;;;;;11.97;100.00;102283.03;5055603;28;20467;-73
2023/09/25 00:39:35;;;;;;;4.80;2.10;;;;;;;11.94;100.00;102284.38;5055078;28;20854;-73
2023/09/25 00:42:02;;;;;;;4.27;1.70;;;;;;;11.93;100.00;102277.31;5055827;28;20438;-73
2023/09/25 00:44:28;;;;;;;4.70;1.77;;;;;;;11.90;100.00;102286.00;5055475;28;20482;-73
2023/09/25 00:46:55;;;;;;;8.97;2.30;;;;;;;11.87;100.00;102272.97;5055846;28;20490;-73
2023/09/25 00:49:22;;;;;;;4.70;2.07;;;;;;;11.86;100.00;102283.00;5055498;28;20442;-73
2023/09/25 00:51:51;;;;;;;9.73;2.23;;;;;;;11.88;100.00;102279.22;5055701;28;20525;-73
2023/09/25 00:54:18;;;;;;;4.80;2.23;;;;;;;11.84;100.00;102279.75;5055731;28;20446;-72
2023/09/25 00:56:45;;;;;;;4.47;2.23;;;;;;;11.84;100.00;102282.44;5055234;28;20498;-72
2023/09/25 00:59:12;;;;;;;4.77;1.90;;;;;;;11.84;100.00;102277.03;5055646;28;20470;-72
2023/09/25 01:01:40;;;;;;;4.60;1.70;;;;;;;11.80;100.00;102270.47;5055341;28;20918;-72
2023/09/25 01:04:08;;;;;;;21.23;2.17;;;;;;;11.79;100.00;102268.03;5054965;28;20581;-73
2023/09/25 01:06:34;;;;;;;5.83;2.83;;;;;;;11.77;100.00;102265.56;5055238;28;20462;-73
2023/09/25 01:09:03;;;;;;;3.70;1.83;;;;;;;11.78;100.00;102264.50;5055251;28;20859;-73
2023/09/25 01:11:30;;;;;;;6.27;2.70;;;;;;;11.78;100.00;102269.13;5055337;28;20465;-72
2023/09/25 01:13:57;;;;;;;3.90;1.80;;;;;;;11.88;100.00;102265.63;5054948;28;20529;-72
2023/09/25 01:16:23;;;;;;;3.60;1.30;;;;;;;11.89;100.00;102267.25;5054824;28;20874;-72
2023/09/25 01:18:50;;;;;;;3.40;1.77;;;;;;;11.98;100.00;102260.22;5055222;28;20525;-73
2023/09/25 01:21:17;;;;;;;4.73;1.80;;;;;;;12.04;100.00;102261.84;5054806;28;20446;-73
2023/09/25 01:23:44;;;;;;;4.63;1.73;;;;;;;12.10;100.00;102263.50;5055078;28;20514;-73
2023/09/25 01:26:11;;;;;;;3.60;1.70;;;;;;;12.16;100.00;102258.88;5054699;28;20488;-73
2023/09/25 01:28:38;;;;;;;4.37;2.10;;;;;;;12.28;100.00;102257.53;5054489;28;20484;-73
2023/09/25 01:31:07;;;;;;;4.50;2.50;;;;;;;12.33;100.00;102260.25;5054280;28;20531;-73
2023/09/25 01:33:33;;;;;;;4.80;2.43;;;;;;;12.35;100.00;102258.09;5054583;28;20452;-73
2023/09/25 01:36:00;;;;;;;6.67;2.47;;;;;;;12.40;100.00;102262.72;5054986;28;20462;-73
2023/09/25 01:38:27;;;;;;;3.83;2.10;;;;;;;12.44;100.00;102257.53;5054503;28;20528;-73
2023/09/25 01:40:55;;;;;;;4.50;2.07;;;;;;;12.41;100.00;102263.53;5054806;28;20537;-73
2023/09/25 01:43:21;;;;;;;3.80;1.80;;;;;;;12.35;100.00;102258.09;5054328;28;20525;-73
2023/09/25 01:45:48;;;;;;;4.20;1.87;;;;;;;12.30;100.00;102252.63;5054321;28;20525;-73
2023/09/25 01:48:15;;;;;;;5.00;2.20;;;;;;;12.28;100.00;102257.53;5054324;28;20901;-73
2023/09/25 01:50:43;;;;;;;3.60;1.93;;;;;;;12.19;100.00;102252.91;5053647;28;20517;-73
2023/09/25 01:53:09;;;;;;;4.33;1.87;;;;;;;12.11;100.00;102251.53;5054231;28;20816;-73
2023/09/25 01:55:36;;;;;;;4.07;1.97;;;;;;;12.04;100.00;102250.97;5054099;28;20434;-73
2023/09/25 01:58:06;;;;;;;5.03;2.40;;;;;;;11.99;100.00;102249.06;5053808;28;20491;-73
2023/09/25 02:00:32;;;;;;;4.00;1.70;;;;;;;11.90;100.00;102249.88;5053776;28;20442;-73
2023/09/25 02:02:59;;;;;;;4.10;2.20;;;;;;;11.86;100.00;102258.59;5054164;28;20573;-73
2023/09/25 02:05:26;;;;;;;5.20;1.97;;;;;;;11.79;100.00;102241.69;5053760;28;20985;-73
2023/09/25 02:07:53;;;;;;;3.23;1.70;;;;;;;11.74;100.00;102252.53;5053870;28;20882;-69
2023/09/25 02:10:20;;;;;;;3.63;1.30;;;;;;;11.65;100.00;102264.19;5054113;28;20460;-68
2023/09/25 02:12:46;;;;;;;5.30;1.90;;;;;;;11.54;100.00;102252.47;5053923;28;20465;-74
2023/09/25 02:15:14;;;;;;;5.97;2.50;;;;;;;11.48;100.00;102253.53;5053865;28;20554;-74
2023/09/25 02:17:41;;;;;;;5.00;1.63;;;;;;;11.44;100.00;102257.88;5054068;28;20458;-73
2023/09/25 02:20:17;;;;;;;4.80;2.17;;;;;;;11.37;100.00;102263.53;5053809;28;20470;-73
2023/09/25 02:22:44;;;;;;;4.00;1.97;;;;;;;11.35;100.00;102254.84;5053490;28;20907;-73
2023/09/25 02:25:12;;;;;;;5.03;1.83;;;;;;;11.29;100.00;102256.72;5053712;28;20446;-73
2023/09/25 02:27:39;;;;;;;3.20;1.70;;;;;;;11.27;100.00;102253.44;5053668;28;20466;-73
2023/09/25 02:30:07;;;;;;;4.30;1.77;;;;;;;11.24;100.00;102245.00;5053632;28;20438;-73
2023/09/25 02:32:36;;;;;;;4.57;2.00;;;;;;;11.18;100.00;102249.59;5053843;28;20440;-73
2023/09/25 02:35:03;;;;;;;3.40;1.47;;;;;;;11.15;100.00;102242.00;5053307;28;20477;-73
2023/09/25 02:37:30;;;;;;;4.40;1.97;;;;;;;11.07;100.00;102251.47;5053583;28;20462;-73
2023/09/25 02:39:57;;;;;;;3.23;1.47;;;;;;;10.98;100.00;102252.19;5053210;28;21060;-73
2023/09/25 02:42:23;;;;;;;4.33;1.47;;;;;;;10.88;100.00;102252.97;5053406;28;20529;-73
2023/09/25 02:44:51;;;;;;;3.10;1.40;;;;;;;10.80;100.00;102248.88;5053110;28;20526;-74
2023/09/25 02:47:18;;;;;;;2.97;1.40;;;;;;;10.72;98.84;102243.94;5053091;28;20973;-73
2023/09/25 02:49:46;;;;;;;4.77;2.17;;;;;;;10.63;99.13;102244.69;5053023;28;20853;-73
2023/09/25 02:52:12;;;;;;;3.27;1.40;;;;;;;10.58;99.65;102245.44;5053387;28;20520;-74
2023/09/25 02:54:39;;;;;;;2.93;1.37;;;;;;;10.51;100.00;102244.84;5053373;28;20453;-74
2023/09/25 02:57:05;;;;;;;3.30;1.80;;;;;;;10.50;100.00;102233.22;5053514;28;20498;-74
2023/09/25 02:59:32;;;;;;;4.10;1.50;;;;;;;10.46;100.00;102239.41;5052984;28;20805;-74
2023/09/25 03:01:59;;;;;;;4.03;1.93;;;;;;;10.45;100.00;102235.88;5053325;28;20530;-74
2023/09/25 03:04:25;;;;;;;3.30;1.47;;;;;;;10.49;100.00;102241.56;5056619;28;20580;-74
2023/09/25 03:06:53;;;;;;;5.80;1.80;;;;;;;10.53;100.00;102232.66;5057435;28;20557;-74
2023/09/25 03:09:20;;;;;;;6.60;1.73;;;;;;;10.54;100.00;102239.75;5057279;28;20511;-74
2023/09/25 03:11:46;;;;;;;2.43;0.93;;;;;;;10.58;100.00;102240.84;5057232;28;20436;-74
2023/09/25 03:14:13;;;;;;;4.80;2.17;;;;;;;10.60;100.00;102244.09;5057221;28;20434;-74
2023/09/25 03:16:40;;;;;;;3.00;1.40;;;;;;;10.71;100.00;102247.69;5056803;28;20557;-74
2023/09/25 03:19:07;;;;;;;3.40;1.60;;;;;;;10.76;100.00;102247.75;5057140;28;20445;-74
2023/09/25 03:21:34;;;;;;;3.30;1.63;;;;;;;10.81;100.00;102250.50;5057104;28;20437;-74
2023/09/25 03:24:02;;;;;;;4.13;1.53;;;;;;;10.88;100.00;102250.25;5056680;28;21001;-74
2023/09/25 03:26:29;;;;;;;5.03;1.97;;;;;;;10.97;100.00;102247.84;5057524;28;20545;-76
2023/09/25 03:28:55;;;;;;;4.40;2.03;;;;;;;11.17;100.00;102247.16;5057001;28;20525;-75
2023/09/25 03:31:22;;;;;;;5.73;2.03;;;;;;;11.32;100.00;102258.06;5057214;28;20434;-74
2023/09/25 03:33:48;;;;;;;7.10;2.10;;;;;;;11.40;100.00;102245.91;5057264;28;20519;-75
2023/09/25 03:36:15;;;;;;;4.60;1.87;;;;;;;11.50;100.00;102240.50;5057118;28;20550;-75
2023/09/25 03:38:42;;;;;;;6.33;2.70;;;;;;;11.59;100.00;102249.75;5056880;28;20468;-75
2023/09/25 03:41:10;;;;;;;7.93;2.80;;;;;;;11.71;100.00;102255.78;5056926;28;20517;-75
2023/09/25 03:43:36;;;;;;;4.40;2.13;;;;;;;11.79;100.00;102259.88;5056924;28;20486;-75
2023/09/25 03:46:03;;;;;;;4.10;2.00;;;;;;;11.86;100.00;102250.44;5056608;28;20831;-74
2023/09/25 03:48:30;;;;;;;5.80;2.77;;;;;;;11.95;100.00;102258.84;5056586;28;20529;-73
2023/09/25 03:50:57;;;;;;;4.33;2.57;;;;;;;12.00;100.00;102248.00;5056708;28;20469;-73
2023/09/25 03:53:24;;;;;;;5.77;2.47;;;;;;;12.06;100.00;102248.81;5056437;28;20997;-73
2023/09/25 03:55:50;;;;;;;5.40;2.10;;;;;;;12.08;100.00;102252.06;5056555;28;20488;-73
2023/09/25 03:58:18;;;;;;;4.97;2.53;;;;;;;12.05;100.00;102247.19;5056471;28;20519;-73
2023/09/25 04:00:45;;;;;;;6.23;2.50;;;;;;;12.01;100.00;102246.09;5056449;28;20438;-74
2023/09/25 04:03:11;;;;;;;5.33;1.97;;;;;;;11.96;100.00;102243.38;5056290;28;20450;-73
2023/09/25 04:05:38;;;;;;;5.27;2.87;;;;;;;11.94;100.00;102256.41;5055880;28;20466;-73
2023/09/25 04:08:06;;;;;;;4.73;2.50;;;;;;;11.93;100.00;102241.19;5056298;28;20521;-73
2023/09/25 04:10:32;;;;;;;4.90;2.47;;;;;;;11.93;100.00;102241.19;5056267;28;20434;-73
2023/09/25 04:12:59;;;;;;;4.47;1.97;;;;;;;11.91;100.00;102246.06;5056410;28;20485;-73
2023/09/25 04:15:27;;;;;;;5.47;2.70;;;;;;;11.94;100.00;102242.81;5055853;28;20526;-73
2023/09/25 04:17:54;;;;;;;6.07;2.50;;;;;;;12.01;100.00;102243.38;5056668;28;20474;-73
2023/09/25 04:20:24;;;;;;;4.80;2.33;;;;;;;12.07;100.00;102250.44;5056019;28;20503;-73
2023/09/25 04:22:52;;;;;;;5.43;3.07;;;;;;;12.09;100.00;102248.28;5056387;28;20450;-73
2023/09/25 04:25:19;;;;;;;5.87;3.07;;;;;;;12.12;100.00;102242.31;5056116;28;20564;-73
2023/09/25 04:27:47;;;;;;;4.63;2.47;;;;;;;12.16;100.00;102248.00;5055787;28;20501;-74
2023/09/25 04:30:19;;;;;;;5.23;2.07;;;;;;;12.14;100.00;102245.56;5056330;28;20434;-73
2023/09/25 04:32:48;;;;;;;5.70;2.70;;;;;;;12.16;100.00;102243.41;5055429;28;20418;-73
2023/09/25 04:35:15;;;;;;;4.13;2.50;;;;;;;12.19;100.00;102250.19;5055927;28;20435;-73
2023/09/25 04:37:42;;;;;;;7.77;2.90;;;;;;;12.16;100.00;102256.97;5055661;28;20461;-73
2023/09/25 04:40:22;;;;;;;6.63;3.07;;;;;;;12.22;100.00;102252.34;5055968;28;20458;-71
2023/09/25 04:42:50;;;;;;;7.60;3.83;;;;;;;12.19;100.00;102259.16;5055422;28;20525;-73
2023/09/25 04:45:18;;;;;;;4.10;2.20;;;;;;;12.20;100.00;102260.78;5055639;28;20510;-73
2023/09/25 04:47:45;;;;;;;6.03;3.30;;;;;;;12.21;100.00;102264.31;5055209;28;20502;-73
2023/09/25 04:50:13;;;;;;;5.27;2.47;;;;;;;12.26;100.00;102270.59;5055572;28;20931;-73
2023/09/25 04:52:41;;;;;;;4.10;2.27;;;;;;;12.25;100.00;102268.94;5055100;28;20930;-73
2023/09/25 04:55:10;;;;;;;6.20;3.03;;;;;;;12.23;100.00;102265.69;5055422;28;20488;-74
2023/09/25 04:57:37;;;;;;;8.00;2.63;;;;;;;12.24;100.00;102270.03;5055693;28;20486;-73
2023/09/25 05:00:21;;;;;;;8.17;2.73;;;;;;;12.24;100.00;102263.78;5055819;28;20960;-73
2023/09/25 05:02:49;;;;;;;5.20;2.63;;;;;;;12.21;100.00;102262.41;5056739;28;20503;-73
2023/09/25 05:05:18;;;;;;;6.67;3.20;;;;;;;12.21;100.00;102259.69;5055138;28;20501;-73
2023/09/25 05:07:46;;;;;;;5.90;2.80;;;;;;;12.25;100.00;102268.94;5055746;28;20548;-74
2023/09/25 05:10:14;;;;;;;6.70;3.60;;;;;;;12.27;100.00;102249.66;5054875;28;20473;-73
2023/09/25 05:12:41;;;;;;;5.37;2.60;;;;;;;12.30;100.00;102257.25;5055901;28;20446;-74
2023/09/25 05:15:09;;;;;;;6.40;2.70;;;;;;;12.32;100.00;102258.63;5054741;28;20492;-74
2023/09/25 05:17:37;;;;;;;6.90;3.00;;;;;;;12.35;100.00;102254.53;5054570;28;20893;-74
2023/09/25 05:20:10;;;;;;;5.47;2.67;;;;;;;12.37;100.00;102261.34;5055274;28;20431;-74
2023/09/25 05:22:38;;;;;;;6.20;2.90;;;;;;;12.42;100.00;102257.81;5054612;28;20513;-74
2023/09/25 05:25:07;;;;;;;6.03;2.90;;;;;;;12.35;100.00;102258.09;5054469;28;20485;-74
2023/09/25 05:27:34;;;;;;;6.13;3.17;;;;;;;12.33;100.00;102251.28;5054631;28;20489;-74
2023/09/25 05:30:01;;;;;;;4.90;1.87;;;;;;;12.35;100.00;102252.66;5055194;28;20460;-73
2023/09/25 05:32:27;;;;;;;5.33;2.83;;;;;;;12.33;100.00;102254.00;5055078;28;20450;-74
2023/09/25 05:34:54;;;;;;;4.20;2.50;;;;;;;12.31;100.00;102257.00;5054441;28;20811;-74
2023/09/25 05:37:21;;;;;;;6.30;2.87;;;;;;;12.37;100.00;102261.34;5054842;28;20502;-74
2023/09/25 05:39:49;;;;;;;4.77;2.90;;;;;;;12.47;100.00;102262.41;5054589;28;20464;-74
2023/09/25 05:42:15;;;;;;;5.90;2.63;;;;;;;12.48;100.00;102261.31;5054933;28;20438;-74
2023/09/25 05:44:42;;;;;;;5.37;2.60;;;;;;;12.48;100.00;102267.56;5054397;28;20993;-74
2023/09/25 05:47:08;;;;;;;6.00;2.97;;;;;;;12.53;100.00;102273.03;5055065;28;20879;-75
2023/09/25 05:49:35;;;;;;;3.50;2.10;;;;;;;12.53;100.00;102269.50;5054810;28;20542;-74
2023/09/25 05:52:03;;;;;;;6.33;3.40;;;;;;;12.49;100.00;102271.94;5054822;28;20451;-74
2023/09/25 05:54:29;;;;;;;5.90;2.57;;;;;;;12.52;100.00;102274.09;5054607;28;20435;-74
2023/09/25 05:56:56;;;;;;;7.93;3.60;;;;;;;12.53;100.00;102274.94;5054421;28;21003;-72
2023/09/25 05:59:23;;;;;;;5.60;2.90;;;;;;;12.49;100.00;102260.25;5054518;28;20633;-71
2023/09/25 06:01:50;;;;;;;5.63;3.00;;;;;;;12.50;100.00;102264.59;5054208;28;20813;-71
2023/09/25 06:04:17;;;;;;;4.53;2.60;;;;;;;12.57;100.00;102263.25;5077011;22;20512;-70
2023/09/25 06:06:44;;;;;;;4.37;2.20;;;;;;;12.62;100.00;102267.88;5073895;28;20462;-71
2023/09/25 06:09:15;;;;;;;6.70;3.17;;;;;;;12.65;100.00;102263.78;5074155;28;20441;-70
2023/09/25 06:11:42;;;;;;;7.80;2.73;;;;;;;12.68;100.00;102257.78;5074348;28;20420;-72
2023/09/25 06:14:10;;;;;;;6.20;2.67;;;;;;;12.75;100.00;102252.88;5074377;28;20521;-77
2023/09/25 06:16:37;;;;;;;5.27;2.70;;;;;;;12.81;100.00;102255.31;5074246;28;20540;-74
2023/09/25 06:19:04;;;;;;;8.23;3.70;;;;;;;12.82;100.00;102251.50;5073911;28;20433;-75
2023/09/25 06:21:31;;;;;;;6.33;3.17;;;;;;;12.85;100.00;102258.31;5074312;28;20452;-74
2023/09/25 06:23:57;;;;;;;7.70;3.50;;;;;;;12.87;100.00;102259.66;5073823;28;20441;-74
2023/09/25 06:26:27;;;;;;;5.80;2.70;;;;;;;12.96;100.00;102262.63;5074292;28;20548;-73
2023/09/25 06:28:53;;;;;;;5.67;2.70;;;;;;;13.02;100.00;102264.25;5075322;28;20484;-73
2023/09/25 06:31:21;;;;;;;8.27;3.20;;;;;;;13.13;100.00;102260.41;5075620;28;20807;-73
2023/09/25 06:33:48;;;;;;;7.10;3.50;;;;;;;13.20;100.00;102262.03;5075466;28;20925;-73
2023/09/25 06:36:15;;;;;;;4.30;2.60;;;;;;;13.23;100.00;102254.13;5075417;28;20453;-73
2023/09/25 06:38:41;;;;;;;5.80;2.50;;;;;;;13.26;100.00;102261.75;5076155;28;20524;-73
2023/09/25 06:41:10;;;;;;;6.80;2.40;;;;;;;13.34;100.00;102253.03;5075796;28;20524;-74
2023/09/25 06:43:37;;;;;;;5.70;2.33;;;;;;;13.41;100.00;102252.72;5075166;28;20857;-74
2023/09/25 06:46:04;;;;;;;4.57;2.50;;;;;;;13.51;100.00;102255.41;5074851;28;20488;-74
2023/09/25 06:48:33;;;;;;;5.10;2.80;;;;;;;13.59;100.00;102262.16;5074999;28;20963;-74
2023/09/25 06:50:59;;;;;;;5.00;2.80;;;;;;;13.63;100.00;102264.06;5075373;28;20878;-74
2023/09/25 06:53:26;;;;;;;5.17;2.63;;;;;;;13.71;100.00;102262.66;5075707;28;20528;-74
2023/09/25 06:55:53;;;;;;;6.30;3.13;;;;;;;13.81;100.00;102261.75;5074859;28;20793;-74
2023/09/25 06:58:19;;;;;;;5.57;2.23;;;;;;;13.87;100.00;102272.38;5075526;28;20441;-75
2023/09/25 07:00:46;;;;;;;4.87;2.23;;;;;;;13.89;100.00;102269.34;5074715;28;20636;-74
2023/09/25 07:03:13;;;;;;;5.07;2.63;;;;;;;13.98;100.00;102266.84;5074350;28;20437;-74
2023/09/25 07:05:41;;;;;;;4.57;2.03;;;;;;;14.03;100.00;102258.63;5074334;28;20479;-74
2023/09/25 07:08:08;;;;;;;5.23;2.80;;;;;;;14.02;100.00;102259.72;5074712;28;20440;-73
2023/09/25 07:10:34;;;;;;;7.57;3.00;;;;;;;14.05;100.00;102264.63;5074487;28;20937;-74
2023/09/25 07:13:01;;;;;;;4.23;2.47;;;;;;;14.14;100.00;102263.75;5074574;28;20524;-73
2023/09/25 07:15:28;;;;;;;3.90;2.03;;;;;;;14.27;100.00;102259.56;5074940;28;20441;-74
2023/09/25 07:17:54;;;;;;;5.47;2.67;;;;;;;14.36;100.00;102257.03;5074570;28;20489;-74
2023/09/25 07:20:21;;;;;;;5.07;2.60;;;;;;;14.48;100.00;102260.25;5073992;28;20474;-74
2023/09/25 07:22:49;;;;;;;6.27;2.70;;;;;;;14.56;100.00;102250.59;5073434;28;20448;-71
2023/09/25 07:25:15;;;;;;;6.67;2.30;;;;;;;14.61;100.00;102254.13;5073040;28;20480;-71
2023/09/25 07:27:42;;;;;;;5.00;2.37;;;;;;;14.72;100.00;102252.09;5073706;28;20535;-74
2023/09/25 07:30:10;;;;;;;3.83;1.90;;;;;;;14.82;100.00;102270.28;5073485;28;21001;-74
2023/09/25 07:32:39;;;;;;;6.67;2.50;;;;;;;14.93;100.00;102265.53;5074776;28;20449;-74
2023/09/25 07:35:09;;;;;;;4.90;2.07;;;;;;;14.98;99.33;102268.22;5074905;28;20917;-77
2023/09/25 07:37:36;;;;;;;4.80;2.17;;;;;;;15.08;98.02;102268.09;5073036;28;20985;-73
2023/09/25 07:40:09;;;;;;;6.10;2.83;;;;;;;15.18;97.59;102272.63;5072798;28;20932;-74
2023/09/25 07:42:36;;;;;;;3.77;2.10;;;;;;;15.27;97.72;102273.59;5072998;28;20429;-74
2023/09/25 07:45:05;;;;;;;4.00;1.63;;;;;;;15.36;96.55;102275.44;5073139;28;20483;-71
2023/09/25 07:47:32;;;;;;;6.83;2.33;;;;;;;15.49;96.54;102273.06;5074775;28;20462;-75
2023/09/25 07:49:59;;;;;;;5.27;2.10;;;;;;;15.52;97.09;102262.38;5076765;28;20493;-75
2023/09/25 07:52:26;;;;;;;4.37;1.90;;;;;;;15.59;97.13;102264.75;5078649;28;20437;-75
2023/09/25 07:54:52;;;;;;;3.40;1.70;;;;;;;15.67;96.97;102257.84;5079723;28;20445;-76
2023/09/25 07:57:21;;;;;;;3.90;1.60;;;;;;;15.72;96.30;102266.81;5078062;28;20487;-75
2023/09/25 07:59:49;;;;;;;3.93;1.83;;;;;;;15.75;96.23;102259.91;5079548;28;20507;-75
2023/09/25 08:02:18;;;;;;;4.67;2.07;;;;;;;15.79;94.87;102267.22;5079596;28;20452;-75
2023/09/25 08:04:45;;;;;;;3.87;2.30;;;;;;;15.88;93.85;102264.66;5079683;28;20448;-75
2023/09/25 08:07:11;;;;;;;3.53;1.57;;;;;;;15.95;91.08;102267.03;5080136;28;20468;-75
2023/09/25 08:09:38;;;;;;;3.37;1.50;;;;;;;16.03;90.76;102269.09;5080748;28;20438;-76
2023/09/25 08:12:05;;;;;;;4.60;2.40;;;;;;;16.14;91.25;102267.81;5079076;28;20451;-75
2023/09/25 08:14:34;;;;;;;4.00;1.93;;;;;;;16.26;89.92;102268.19;5079519;28;20437;-75
2023/09/25 08:17:00;;;;;;;4.10;1.93;;;;;;;16.35;89.94;102269.13;5078046;28;20459;-75
2023/09/25 08:19:27;;;;;;;3.47;1.47;;;;;;;16.40;90.86;102270.97;5078402;28;20437;-75
2023/09/25 08:21:53;;;;;;;4.87;1.50;;;;;;;16.45;91.18;102270.06;5077562;28;20521;-75
2023/09/25 08:24:20;;;;;;;3.57;1.30;;;;;;;16.49;91.57;102266.41;5078233;28;20434;-74
2023/09/25 08:26:47;;;;;;;4.60;1.97;;;;;;;16.58;89.83;102274.75;5078205;28;20517;-75
2023/09/25 08:29:14;;;;;;;5.63;1.90;;;;;;;16.73;87.69;102269.03;5078934;28;20445;-75
2023/09/25 08:31:43;;;;;;;4.07;1.57;;;;;;;16.82;87.58;102280.94;5078444;28;20448;-74
2023/09/25 08:34:10;;;;;;;3.60;1.60;;;;;;;16.97;86.12;102271.63;5078659;28;20448;-75
2023/09/25 08:36:36;;;;;;;3.37;1.87;;;;;;;17.07;85.90;102270.59;5077333;28;20500;-75
2023/09/25 08:39:03;;;;;;;3.33;1.50;;;;;;;17.14;85.55;102282.78;5078233;28;20442;-75
2023/09/25 08:41:31;;;;;;;3.07;1.60;;;;;;;17.23;86.00;102271.13;5077657;28;20450;-75
2023/09/25 08:43:58;;;;;;;3.30;1.73;;;;;;;17.29;85.85;102276.19;5078501;28;20511;-75
2023/09/25 08:46:26;;;;;;;4.10;1.20;;;;;;;17.38;84.25;102268.88;5075876;28;20485;-73
2023/09/25 08:48:56;;;;;;;4.50;1.63;;;;;;;17.48;82.38;102287.03;5075675;28;20827;-74
2023/09/25 08:51:24;;;;;;;3.00;1.20;;;;;;;17.53;82.58;102277.88;5076059;28;20425;-72
2023/09/25 08:53:51;;;;;;;4.20;1.40;;;;;;;17.57;82.53;102276.16;5075565;28;20948;-74
2023/09/25 08:56:18;;;;;;;2.80;1.30;;;;;;;17.72;80.32;102277.78;5075059;28;20960;-73
2023/09/25 08:58:46;;;;;;;4.63;1.67;;;;;;;17.82;80.02;102277.56;5075467;28;20448;-74
2023/09/25 09:01:14;;;;;;;3.30;1.27;;;;;;;17.93;82.88;102272.66;5075499;28;20437;-73
2023/09/25 09:03:41;;;;;;;4.60;1.40;;;;;;;18.00;82.25;102273.84;5075141;28;20463;-73
2023/09/25 09:06:09;;;;;;;6.40;1.87;;;;;;;18.06;79.94;102272.63;5075150;28;20568;-73
2023/09/25 09:08:36;;;;;;;4.40;1.53;;;;;;;18.13;78.37;102272.19;5075483;28;20446;-73
2023/09/25 09:11:09;;;;;;;3.73;1.87;;;;;;;18.21;80.24;102273.38;5075337;28;20533;-73
2023/09/25 09:13:42;;;;;;;3.10;1.13;;;;;;;18.27;79.53;102272.94;5075771;28;20410;-73
2023/09/25 09:16:12;;;;;;;3.20;1.37;;;;;;;18.28;78.39;102266.34;5074981;28;20990;-73
2023/09/25 09:18:39;;;;;;;3.00;1.30;;;;;;;18.37;78.62;102271.88;5075154;28;20459;-72
2023/09/25 09:21:07;;;;;;;3.17;1.40;;;;;;;18.47;76.15;102268.88;5074958;28;20441;-72
2023/09/25 09:23:42;;;;;;;3.93;1.47;;;;;;;18.54;74.63;102273.91;5074965;28;20437;-72
2023/09/25 09:26:12;;;;;;;3.90;1.60;;;;;;;18.57;75.48;102265.88;5074952;28;20499;-72
2023/09/25 09:28:38;;;;;;;3.63;1.50;;;;;;;18.59;74.63;102263.63;5074776;28;20430;-72
2023/09/25 09:31:07;;;;;;;2.80;1.33;;;;;;;18.66;76.35;102258.50;5074799;28;20540;-72
2023/09/25 09:33:36;;;;;;;2.80;1.37;;;;;;;18.70;75.02;102264.19;5074629;28;20446;-71
2023/09/25 09:36:02;;;;;;;3.30;1.20;;;;;;;18.80;74.42;102254.88;5074156;28;20973;-72
2023/09/25 09:38:30;;;;;;;3.73;1.50;;;;;;;18.80;75.04;102252.94;5074617;28;20444;-72
2023/09/25 09:40:58;;;;;;;3.90;1.70;;;;;;;18.88;74.42;102260.41;5074959;28;20495;-72
2023/09/25 09:43:25;;;;;;;3.47;1.67;;;;;;;18.98;71.27;102253.00;5074614;28;20456;-72
2023/09/25 09:45:53;;;;;;;4.03;1.60;;;;;;;19.03;69.67;102261.09;5073944;28;20989;-71
2023/09/25 09:48:20;;;;;;;5.00;1.80;;;;;;;19.03;70.23;102250.94;5074346;28;20433;-73
2023/09/25 09:50:52;;;;;;;3.50;1.53;;;;;;;19.11;69.69;102252.09;5074659;28;20461;-72
2023/09/25 09:53:18;;;;;;;4.40;1.73;;;;;;;19.20;70.71;102244.69;5073959;28;20436;-72
2023/09/25 09:55:46;;;;;;;3.93;1.70;;;;;;;19.22;69.02;102244.38;5074156;28;20469;-73
2023/09/25 09:58:15;;;;;;;2.87;1.40;;;;;;;19.25;69.19;102238.22;5074169;28;20447;-74
2023/09/25 10:00:43;;;;;;;2.80;1.50;;;;;;;19.29;70.16;102234.53;5074277;28;20503;-73
2023/09/25 10:03:11;;;;;;;3.50;1.60;;;;;;;19.38;71.73;102240.03;5074023;28;20446;-73
2023/09/25 10:05:44;;;;;;;3.43;1.53;;;;;;;19.53;70.35;102236.03;5073989;28;20483;-73
2023/09/25 10:08:10;;;;;;;3.47;1.27;;;;;;;19.63;70.12;102225.56;5074175;28;20497;-72
2023/09/25 10:10:39;;;;;;;3.23;1.53;;;;;;;19.73;67.34;102232.69;5082199;28;20929;-75
2023/09/25 10:13:08;;;;;;;5.63;2.10;;;;;;;19.80;65.55;102227.53;5091359;28;20933;-76
2023/09/25 10:15:36;;;;;;;4.37;1.67;;;;;;;19.84;66.99;102230.44;5082943;28;20842;-76
2023/09/25 10:18:05;;;;;;;2.87;1.50;;;;;;;19.89;69.52;102222.03;5074052;28;20459;-76
2023/09/25 10:20:37;;;;;;;4.27;1.47;;;;;;;19.97;66.34;102229.47;5073986;28;20445;-75
2023/09/25 10:23:08;;;;;;;3.63;1.60;;;;;;;20.13;65.94;102224.25;5073950;28;20437;-76
2023/09/25 10:25:46;;;;;;;8.90;1.33;;;;;;;20.27;66.95;102226.81;5073665;28;20512;-76
2023/09/25 10:28:16;;;;;;;3.13;1.40;;;;;;;20.33;65.63;102225.53;5073748;28;20465;-76
2023/09/25 10:30:44;;;;;;;3.00;1.20;;;;;;;20.40;65.00;102225.81;5074139;28;20524;-76
2023/09/25 10:33:11;;;;;;;3.60;1.37;;;;;;;20.48;60.36;102226.97;5073875;28;20455;-77
2023/09/25 10:35:43;;;;;;;3.73;1.63;;;;;;;20.52;61.14;102214.16;5074118;28;20447;-73
2023/09/25 10:38:15;;;;;;;2.97;1.17;;;;;;;20.60;62.71;102213.34;5073922;28;20457;-76
2023/09/25 10:40:46;;;;;;;3.80;1.77;;;;;;;20.71;64.40;102217.31;5074134;28;20418;-74
2023/09/25 10:43:13;;;;;;;2.83;1.30;;;;;;;20.78;64.67;102206.63;5073698;28;20873;-76
2023/09/25 10:45:39;;;;;;;2.67;1.23;;;;;;;20.90;63.82;102195.72;5073287;28;20448;-75
2023/09/25 10:48:08;;;;;;;4.00;2.07;;;;;;;21.04;59.63;102195.47;5073302;28;20443;-77
2023/09/25 10:50:37;;;;;;;3.63;1.87;;;;;;;21.12;60.20;102193.81;5073280;28;20441;-76
2023/09/25 10:53:05;;;;;;;2.80;1.20;;;;;;;21.22;61.61;102190.66;5073785;28;20480;-77
2023/09/25 10:55:32;;;;;;;2.90;1.10;;;;;;;21.33;62.83;102191.91;5073428;28;20444;-73
2023/09/25 10:57:59;;;;;;;3.13;1.57;;;;;;;21.47;57.90;102196.34;5073953;28;20453;-74
2023/09/25 11:00:26;;;;;;;2.70;1.03;;;;;;;21.58;61.14;102194.81;5073413;28;20928;-74
2023/09/25 11:02:52;;;;;;;4.30;1.93;;;;;;;21.75;60.13;102191.91;5073447;28;20528;-75
2023/09/25 11:05:22;;;;;;;3.70;1.40;;;;;;;21.92;58.63;102191.75;5073417;28;20548;-73
2023/09/25 11:07:49;;;;;;;3.17;1.40;;;;;;;22.18;58.87;102190.72;5073232;28;20998;-74
2023/09/25 11:10:16;;;;;;;3.23;1.47;;;;;;;22.76;57.70;102188.75;5073356;28;20436;-74
2023/09/25 11:12:47;;;;;;;3.70;1.50;;;;;;;23.70;56.75;102184.94;5073287;28;20524;-74
2023/09/25 11:15:14;;;;;;;3.27;1.63;;;;;;;24.69;51.72;102191.56;5073073;28;20421;-74
2023/09/25 11:17:41;;;;;;;3.23;1.20;;;;;;;25.40;48.34;102179.34;5073320;28;20457;-75
2023/09/25 11:20:18;;;;;;;2.57;1.00;;;;;;;25.92;45.74;102186.41;5073694;28;20455;-75